sensor_id;sensor_type;location;lat;lon;timestamp;pressure;altitude;pressure_sealevel;temperature;humidity
40372;BME280;28564;53.346;-6.554;2023-03-22T00:01:18;97932.96;;;14.14;57.49
40372;BME280;28564;53.346;-6.554;2023-03-22T00:03:45;97929.93;;;14.11;57.63
40372;BME280;28564;53.346;-6.554;2023-03-22T00:06:13;97924.32;;;14.06;57.83
40372;BME280;28564;53.346;-6.554;2023-03-22T00:08:40;97928.34;;;14.26;57.89
40372;BME280;28564;53.346;-6.554;2023-03-22T00:11:07;97924.98;;;13.99;58.07
40372;BME280;28564;53.346;-6.554;2023-03-22T00:13:35;97919.72;;;13.93;58.25
40372;BME280;28564;53.346;-6.554;2023-03-22T00:16:04;97918.18;;;13.93;58.46
40372;BME280;28564;53.346;-6.554;2023-03-22T00:18:31;97924.15;;;14.15;58.39
40372;BME280;28564;53.346;-6.554;2023-03-22T00:20:59;97922.14;;;13.92;58.49
40372;BME280;28564;53.346;-6.554;2023-03-22T00:23:27;97935.02;;;14.12;58.46
40372;BME280;28564;53.346;-6.554;2023-03-22T00:25:54;97947.16;;;14.10;58.50
40372;BME280;28564;53.346;-6.554;2023-03-22T00:28:22;97978.19;;;13.77;59.00
40372;BME280;28564;53.346;-6.554;2023-03-22T00:30:52;97985.94;;;13.62;59.34
40372;BME280;28564;53.346;-6.554;2023-03-22T00:33:19;97973.26;;;13.47;59.46
40372;BME280;28564;53.346;-6.554;2023-03-22T00:35:48;97973.14;;;13.77;59.15
40372;BME280;28564;53.346;-6.554;2023-03-22T00:38:16;97982.06;;;13.41;58.98
40372;BME280;28564;53.346;-6.554;2023-03-22T00:40:43;97975.95;;;13.02;58.52
40372;BME280;28564;53.346;-6.554;2023-03-22T00:43:11;97983.49;;;13.14;58.69
40372;BME280;28564;53.346;-6.554;2023-03-22T00:45:39;98019.10;;;13.01;58.67
40372;BME280;28564;53.346;-6.554;2023-03-22T00:48:07;98013.48;;;13.15;58.13
40372;BME280;28564;53.346;-6.554;2023-03-22T00:50:36;98017.26;;;13.15;57.72
40372;BME280;28564;53.346;-6.554;2023-03-22T00:53:03;98022.83;;;13.14;57.31
40372;BME280;28564;53.346;-6.554;2023-03-22T00:55:31;98067.60;;;13.10;56.91
40372;BME280;28564;53.346;-6.554;2023-03-22T00:57:58;98055.49;;;12.98;55.74
40372;BME280;28564;53.346;-6.554;2023-03-22T01:00:26;98101.19;;;12.75;53.89
40372;BME280;28564;53.346;-6.554;2023-03-22T01:02:53;98090.71;;;12.49;51.36
40372;BME280;28564;53.346;-6.554;2023-03-22T01:05:20;98075.91;;;12.70;49.30
40372;BME280;28564;53.346;-6.554;2023-03-22T01:07:48;98082.08;;;12.49;48.81
40372;BME280;28564;53.346;-6.554;2023-03-22T01:10:16;98100.60;;;12.30;47.83
40372;BME280;28564;53.346;-6.554;2023-03-22T01:12:44;98103.77;;;11.98;47.70
40372;BME280;28564;53.346;-6.554;2023-03-22T01:15:12;98117.89;;;12.19;47.70
40372;BME280;28564;53.346;-6.554;2023-03-22T01:17:39;98115.19;;;12.19;47.42
40372;BME280;28564;53.346;-6.554;2023-03-22T01:20:08;98127.56;;;12.17;47.12
40372;BME280;28564;53.346;-6.554;2023-03-22T01:22:36;98133.88;;;12.04;46.17
40372;BME280;28564;53.346;-6.554;2023-03-22T01:25:03;98122.12;;;11.91;45.92
40372;BME280;28564;53.346;-6.554;2023-03-22T01:27:32;98145.77;;;11.86;46.35
40372;BME280;28564;53.346;-6.554;2023-03-22T01:29:59;98111.34;;;11.79;46.50
40372;BME280;28564;53.346;-6.554;2023-03-22T01:32:27;98127.34;;;11.73;46.96
40372;BME280;28564;53.346;-6.554;2023-03-22T01:34:54;98127.70;;;11.61;47.19
40372;BME280;28564;53.346;-6.554;2023-03-22T01:37:21;98132.20;;;11.73;46.95
40372;BME280;28564;53.346;-6.554;2023-03-22T01:39:48;98151.08;;;11.63;47.22
40372;BME280;28564;53.346;-6.554;2023-03-22T01:42:16;98152.55;;;11.31;46.24
40372;BME280;28564;53.346;-6.554;2023-03-22T01:45:10;98176.50;;;11.45;46.00
40372;BME280;28564;53.346;-6.554;2023-03-22T01:47:48;98166.46;;;11.08;44.26
40372;BME280;28564;53.346;-6.554;2023-03-22T01:50:18;98178.66;;;11.20;43.70
40372;BME280;28564;53.346;-6.554;2023-03-22T01:52:46;98204.23;;;11.00;42.44
40372;BME280;28564;53.346;-6.554;2023-03-22T01:55:14;98191.38;;;11.13;42.06
40372;BME280;28564;53.346;-6.554;2023-03-22T01:57:42;98184.85;;;11.09;42.38
40372;BME280;28564;53.346;-6.554;2023-03-22T02:00:11;98185.32;;;10.99;42.38
40372;BME280;28564;53.346;-6.554;2023-03-22T02:02:39;98203.70;;;10.95;42.97
40372;BME280;28564;53.346;-6.554;2023-03-22T02:05:06;98193.84;;;10.89;42.90
40372;BME280;28564;53.346;-6.554;2023-03-22T02:07:34;98201.57;;;10.81;42.70
40372;BME280;28564;53.346;-6.554;2023-03-22T02:10:06;98196.98;;;10.77;42.97
40372;BME280;28564;53.346;-6.554;2023-03-22T02:12:42;98199.39;;;10.45;43.16
40372;BME280;28564;53.346;-6.554;2023-03-22T02:15:19;98203.47;;;10.68;43.47
40372;BME280;28564;53.346;-6.554;2023-03-22T02:17:59;98210.61;;;10.65;43.93
40372;BME280;28564;53.346;-6.554;2023-03-22T02:20:46;98221.08;;;10.32;43.75
40372;BME280;28564;53.346;-6.554;2023-03-22T02:23:33;98216.72;;;10.55;43.95
40372;BME280;28564;53.346;-6.554;2023-03-22T02:26:28;98218.63;;;10.49;43.82
40372;BME280;28564;53.346;-6.554;2023-03-22T02:29:06;98236.53;;;10.44;43.91
40372;BME280;28564;53.346;-6.554;2023-03-22T02:31:55;98229.95;;;10.37;43.91
40372;BME280;28564;53.346;-6.554;2023-03-22T02:34:42;98233.36;;;10.34;43.96
40372;BME280;28564;53.346;-6.554;2023-03-22T02:37:30;98233.43;;;10.28;43.83
40372;BME280;28564;53.346;-6.554;2023-03-22T02:40:06;98245.56;;;10.21;43.94
40372;BME280;28564;53.346;-6.554;2023-03-22T02:42:43;98248.53;;;10.18;43.95
40372;BME280;28564;53.346;-6.554;2023-03-22T02:45:21;98264.60;;;10.16;43.96
40372;BME280;28564;53.346;-6.554;2023-03-22T02:47:55;98264.99;;;10.08;43.50
40372;BME280;28564;53.346;-6.554;2023-03-22T02:50:28;98269.70;;;10.32;43.80
40372;BME280;28564;53.346;-6.554;2023-03-22T02:53:01;98273.01;;;10.28;43.80
40372;BME280;28564;53.346;-6.554;2023-03-22T02:55:33;98281.37;;;9.98;43.45
40372;BME280;28564;53.346;-6.554;2023-03-22T02:58:08;98280.49;;;9.96;43.43
40372;BME280;28564;53.346;-6.554;2023-03-22T03:00:38;98312.10;;;9.94;43.49
40372;BME280;28564;53.346;-6.554;2023-03-22T03:03:09;98300.99;;;9.88;43.27
40372;BME280;28564;53.346;-6.554;2023-03-22T03:05:40;98296.40;;;10.32;43.56
40372;BME280;28564;53.346;-6.554;2023-03-22T03:08:09;98307.75;;;9.79;43.60
40372;BME280;28564;53.346;-6.554;2023-03-22T03:10:39;98296.87;;;9.97;43.45
40372;BME280;28564;53.346;-6.554;2023-03-22T03:13:11;98317.16;;;10.21;43.29
40372;BME280;28564;53.346;-6.554;2023-03-22T03:15:40;98308.42;;;10.18;43.59
40372;BME280;28564;53.346;-6.554;2023-03-22T03:18:18;98311.30;;;9.88;43.94
40372;BME280;28564;53.346;-6.554;2023-03-22T03:20:57;98315.01;;;10.09;44.38
40372;BME280;28564;53.346;-6.554;2023-03-22T03:23:37;98328.51;;;10.01;44.78
40372;BME280;28564;53.346;-6.554;2023-03-22T03:26:12;98329.93;;;9.94;45.00
40372;BME280;28564;53.346;-6.554;2023-03-22T03:28:48;98323.63;;;9.41;44.90
40372;BME280;28564;53.346;-6.554;2023-03-22T03:31:26;98329.10;;;9.59;44.81
40372;BME280;28564;53.346;-6.554;2023-03-22T03:33:58;98325.34;;;9.80;44.47
40372;BME280;28564;53.346;-6.554;2023-03-22T03:36:30;98333.48;;;9.74;44.25
40372;BME280;28564;53.346;-6.554;2023-03-22T03:39:01;98340.37;;;9.66;44.13
40372;BME280;28564;53.346;-6.554;2023-03-22T03:41:29;98341.12;;;9.60;43.96
40372;BME280;28564;53.346;-6.554;2023-03-22T03:43:58;98349.77;;;9.50;44.25
40372;BME280;28564;53.346;-6.554;2023-03-22T03:46:26;98342.80;;;9.45;44.06
40372;BME280;28564;53.346;-6.554;2023-03-22T03:48:56;98348.21;;;9.42;44.06
40372;BME280;28564;53.346;-6.554;2023-03-22T03:51:26;98355.59;;;9.40;43.80
40372;BME280;28564;53.346;-6.554;2023-03-22T03:53:54;98365.26;;;9.34;44.09
40372;BME280;28564;53.346;-6.554;2023-03-22T03:56:21;98363.04;;;9.32;43.99
40372;BME280;28564;53.346;-6.554;2023-03-22T03:58:48;98370.31;;;9.52;43.95
40372;BME280;28564;53.346;-6.554;2023-03-22T04:01:15;98373.22;;;9.27;43.95
40372;BME280;28564;53.346;-6.554;2023-03-22T04:03:43;98377.40;;;9.47;44.12
40372;BME280;28564;53.346;-6.554;2023-03-22T04:06:10;98379.51;;;9.24;44.14
40372;BME280;28564;53.346;-6.554;2023-03-22T04:08:37;98390.04;;;9.22;44.25
40372;BME280;28564;53.346;-6.554;2023-03-22T04:11:05;98389.41;;;9.19;44.17
40372;BME280;28564;53.346;-6.554;2023-03-22T04:13:33;98387.92;;;9.14;44.40
40372;BME280;28564;53.346;-6.554;2023-03-22T04:16:00;98388.20;;;9.10;44.50
40372;BME280;28564;53.346;-6.554;2023-03-22T04:18:27;98391.25;;;9.09;44.38
40372;BME280;28564;53.346;-6.554;2023-03-22T04:20:54;98385.10;;;9.27;44.34
40372;BME280;28564;53.346;-6.554;2023-03-22T04:23:22;98392.92;;;9.06;44.34
40372;BME280;28564;53.346;-6.554;2023-03-22T04:25:49;98392.35;;;9.00;44.30
40372;BME280;28564;53.346;-6.554;2023-03-22T04:28:16;98400.45;;;8.95;44.43
40372;BME280;28564;53.346;-6.554;2023-03-22T04:30:43;98399.27;;;8.95;44.37
40372;BME280;28564;53.346;-6.554;2023-03-22T04:33:11;98402.38;;;8.95;43.99
40372;BME280;28564;53.346;-6.554;2023-03-22T04:35:38;98409.27;;;9.14;43.95
40372;BME280;28564;53.346;-6.554;2023-03-22T04:38:05;98409.57;;;9.06;44.06
40372;BME280;28564;53.346;-6.554;2023-03-22T04:40:32;98404.86;;;9.05;43.83
40372;BME280;28564;53.346;-6.554;2023-03-22T04:43:00;98416.67;;;8.79;43.73
40372;BME280;28564;53.346;-6.554;2023-03-22T04:45:27;98420.75;;;8.79;43.67
40372;BME280;28564;53.346;-6.554;2023-03-22T04:47:54;98420.10;;;8.98;43.71
40372;BME280;28564;53.346;-6.554;2023-03-22T04:50:22;98424.01;;;8.75;43.82
40372;BME280;28564;53.346;-6.554;2023-03-22T04:52:50;98423.85;;;8.94;43.94
40372;BME280;28564;53.346;-6.554;2023-03-22T04:55:17;98422.47;;;8.68;44.11
40372;BME280;28564;53.346;-6.554;2023-03-22T04:57:44;98423.70;;;8.88;44.20
40372;BME280;28564;53.346;-6.554;2023-03-22T05:00:12;98428.68;;;8.64;44.38
40372;BME280;28564;53.346;-6.554;2023-03-22T05:02:40;98430.65;;;8.86;44.44
40372;BME280;28564;53.346;-6.554;2023-03-22T05:05:07;98432.29;;;9.10;44.54
40372;BME280;28564;53.346;-6.554;2023-03-22T05:07:34;98436.57;;;8.82;44.79
40372;BME280;28564;53.346;-6.554;2023-03-22T05:10:02;98443.26;;;8.79;44.97
40372;BME280;28564;53.346;-6.554;2023-03-22T05:12:30;98439.97;;;8.79;45.04
40372;BME280;28564;53.346;-6.554;2023-03-22T05:14:57;98441.85;;;9.00;45.20
40372;BME280;28564;53.346;-6.554;2023-03-22T05:17:24;98446.21;;;8.76;45.28
40372;BME280;28564;53.346;-6.554;2023-03-22T05:19:52;98442.89;;;8.98;45.39
40372;BME280;28564;53.346;-6.554;2023-03-22T05:22:19;98447.72;;;8.55;45.40
40372;BME280;28564;53.346;-6.554;2023-03-22T05:24:47;98447.71;;;8.73;45.50
40372;BME280;28564;53.346;-6.554;2023-03-22T05:27:14;98448.61;;;8.52;45.55
40372;BME280;28564;53.346;-6.554;2023-03-22T05:29:42;98456.00;;;8.71;45.71
40372;BME280;28564;53.346;-6.554;2023-03-22T05:32:09;98454.85;;;8.67;45.87
40372;BME280;28564;53.346;-6.554;2023-03-22T05:34:36;98453.88;;;8.40;46.05
40372;BME280;28564;53.346;-6.554;2023-03-22T05:37:04;98460.78;;;8.85;46.16
40372;BME280;28564;53.346;-6.554;2023-03-22T05:39:31;98452.41;;;8.57;46.33
40372;BME280;28564;53.346;-6.554;2023-03-22T05:41:58;98449.78;;;8.54;46.47
40372;BME280;28564;53.346;-6.554;2023-03-22T05:44:25;98446.39;;;8.31;46.51
40372;BME280;28564;53.346;-6.554;2023-03-22T05:46:53;98440.62;;;8.72;46.66
40372;BME280;28564;53.346;-6.554;2023-03-22T05:49:20;98444.07;;;8.27;46.72
40372;BME280;28564;53.346;-6.554;2023-03-22T05:51:47;98445.77;;;8.26;46.78
40372;BME280;28564;53.346;-6.554;2023-03-22T05:54:14;98442.71;;;8.68;46.90
40372;BME280;28564;53.346;-6.554;2023-03-22T05:56:41;98439.04;;;8.46;46.88
40372;BME280;28564;53.346;-6.554;2023-03-22T05:59:09;98442.91;;;8.46;46.79
40372;BME280;28564;53.346;-6.554;2023-03-22T06:01:36;98442.25;;;8.25;46.60
40372;BME280;28564;53.346;-6.554;2023-03-22T06:04:03;98446.34;;;8.48;46.51
40372;BME280;28564;53.346;-6.554;2023-03-22T06:06:30;98446.85;;;8.71;46.46
40372;BME280;28564;53.346;-6.554;2023-03-22T06:08:58;98446.38;;;8.49;46.23
40372;BME280;28564;53.346;-6.554;2023-03-22T06:11:25;98449.20;;;8.48;46.12
40372;BME280;28564;53.346;-6.554;2023-03-22T06:13:52;98445.18;;;8.71;45.97
40372;BME280;28564;53.346;-6.554;2023-03-22T06:16:19;98449.36;;;8.69;46.05
40372;BME280;28564;53.346;-6.554;2023-03-22T06:18:46;98447.55;;;8.69;46.01
40372;BME280;28564;53.346;-6.554;2023-03-22T06:21:14;98457.85;;;8.46;45.98
40372;BME280;28564;53.346;-6.554;2023-03-22T06:23:41;98449.71;;;8.45;46.03
40372;BME280;28564;53.346;-6.554;2023-03-22T06:26:09;98448.29;;;8.70;45.89
40372;BME280;28564;53.346;-6.554;2023-03-22T06:28:36;98452.80;;;8.71;45.91
40372;BME280;28564;53.346;-6.554;2023-03-22T06:31:05;98446.96;;;8.50;45.94
40372;BME280;28564;53.346;-6.554;2023-03-22T06:33:33;98454.58;;;8.52;45.93
40372;BME280;28564;53.346;-6.554;2023-03-22T06:36:02;98451.21;;;8.56;45.96
40372;BME280;28564;53.346;-6.554;2023-03-22T06:38:29;98448.99;;;8.57;46.04
40372;BME280;28564;53.346;-6.554;2023-03-22T06:40:57;98455.28;;;8.60;46.04
40372;BME280;28564;53.346;-6.554;2023-03-22T06:43:24;98460.53;;;8.82;46.15
40372;BME280;28564;53.346;-6.554;2023-03-22T06:45:51;98457.93;;;8.59;46.19
40372;BME280;28564;53.346;-6.554;2023-03-22T06:48:18;98455.43;;;8.36;46.22
40372;BME280;28564;53.346;-6.554;2023-03-22T06:50:45;98456.04;;;8.85;46.19
40372;BME280;28564;53.346;-6.554;2023-03-22T06:53:12;98456.24;;;8.38;46.34
40372;BME280;28564;53.346;-6.554;2023-03-22T06:55:40;98460.24;;;8.62;46.43
40372;BME280;28564;53.346;-6.554;2023-03-22T06:58:07;98459.24;;;8.66;46.45
40372;BME280;28564;53.346;-6.554;2023-03-22T07:00:34;98453.99;;;8.68;46.49
40372;BME280;28564;53.346;-6.554;2023-03-22T07:03:03;98459.42;;;8.75;46.36
40372;BME280;28564;53.346;-6.554;2023-03-22T07:05:30;98452.36;;;8.57;46.20
40372;BME280;28564;53.346;-6.554;2023-03-22T07:07:58;98453.18;;;8.82;46.34
40372;BME280;28564;53.346;-6.554;2023-03-22T07:10:25;98445.45;;;9.08;46.55
40372;BME280;28564;53.346;-6.554;2023-03-22T07:12:51;98450.84;;;8.92;46.60
40372;BME280;28564;53.346;-6.554;2023-03-22T07:15:19;98448.72;;;8.74;46.51
40372;BME280;28564;53.346;-6.554;2023-03-22T07:17:46;98447.59;;;8.79;46.44
40372;BME280;28564;53.346;-6.554;2023-03-22T07:20:13;98446.54;;;9.07;46.18
40372;BME280;28564;53.346;-6.554;2023-03-22T07:22:40;98442.76;;;8.88;46.28
40372;BME280;28564;53.346;-6.554;2023-03-22T07:25:08;98434.43;;;8.94;46.15
40372;BME280;28564;53.346;-6.554;2023-03-22T07:27:35;98441.80;;;8.96;46.26
40372;BME280;28564;53.346;-6.554;2023-03-22T07:30:03;98434.51;;;9.02;46.05
40372;BME280;28564;53.346;-6.554;2023-03-22T07:32:31;98435.98;;;9.01;46.21
40372;BME280;28564;53.346;-6.554;2023-03-22T07:34:58;98439.05;;;9.10;46.02
40372;BME280;28564;53.346;-6.554;2023-03-22T07:37:25;98439.40;;;9.16;45.89
40372;BME280;28564;53.346;-6.554;2023-03-22T07:39:53;98435.37;;;9.24;45.72
40372;BME280;28564;53.346;-6.554;2023-03-22T07:42:20;98441.10;;;9.05;45.68
40372;BME280;28564;53.346;-6.554;2023-03-22T07:44:47;98437.59;;;9.34;45.71
40372;BME280;28564;53.346;-6.554;2023-03-22T07:47:15;98432.45;;;9.40;45.35
40372;BME280;28564;53.346;-6.554;2023-03-22T07:49:42;98425.71;;;9.46;45.29
40372;BME280;28564;53.346;-6.554;2023-03-22T07:52:09;98433.64;;;9.55;45.08
40372;BME280;28564;53.346;-6.554;2023-03-22T07:54:37;98436.73;;;9.63;44.99
40372;BME280;28564;53.346;-6.554;2023-03-22T07:57:04;98435.72;;;9.73;44.64
40372;BME280;28564;53.346;-6.554;2023-03-22T07:59:31;98441.83;;;9.58;44.74
40372;BME280;28564;53.346;-6.554;2023-03-22T08:01:58;98431.70;;;9.49;44.64
40372;BME280;28564;53.346;-6.554;2023-03-22T08:04:26;98440.37;;;9.63;44.72
40372;BME280;28564;53.346;-6.554;2023-03-22T08:06:53;98435.39;;;9.97;44.45
40372;BME280;28564;53.346;-6.554;2023-03-22T08:09:20;98442.60;;;10.33;44.47
40372;BME280;28564;53.346;-6.554;2023-03-22T08:11:47;98446.55;;;9.91;44.34
40372;BME280;28564;53.346;-6.554;2023-03-22T08:14:14;98452.08;;;9.97;44.29
40372;BME280;28564;53.346;-6.554;2023-03-22T08:16:42;98443.28;;;10.05;44.19
40372;BME280;28564;53.346;-6.554;2023-03-22T08:19:09;98438.21;;;10.09;43.92
40372;BME280;28564;53.346;-6.554;2023-03-22T08:21:36;98438.62;;;10.08;44.13
40372;BME280;28564;53.346;-6.554;2023-03-22T08:24:04;98434.99;;;10.15;44.25
40372;BME280;28564;53.346;-6.554;2023-03-22T08:26:31;98433.38;;;9.94;44.32
40372;BME280;28564;53.346;-6.554;2023-03-22T08:28:59;98435.94;;;10.29;43.87
40372;BME280;28564;53.346;-6.554;2023-03-22T08:31:26;98431.27;;;10.35;43.67
40372;BME280;28564;53.346;-6.554;2023-03-22T08:33:53;98431.95;;;10.42;43.58
40372;BME280;28564;53.346;-6.554;2023-03-22T08:36:21;98434.32;;;10.48;43.55
40372;BME280;28564;53.346;-6.554;2023-03-22T08:38:48;98432.28;;;10.26;43.56
40372;BME280;28564;53.346;-6.554;2023-03-22T08:41:15;98425.02;;;10.59;43.84
40372;BME280;28564;53.346;-6.554;2023-03-22T08:43:43;98424.95;;;10.43;43.40
40372;BME280;28564;53.346;-6.554;2023-03-22T08:46:10;98423.08;;;10.71;43.47
40372;BME280;28564;53.346;-6.554;2023-03-22T08:48:37;98420.81;;;10.42;43.51
40372;BME280;28564;53.346;-6.554;2023-03-22T08:51:05;98426.84;;;10.68;43.51
40372;BME280;28564;53.346;-6.554;2023-03-22T08:53:32;98426.16;;;10.68;43.55
40372;BME280;28564;53.346;-6.554;2023-03-22T08:56:00;98425.45;;;10.41;43.72
40372;BME280;28564;53.346;-6.554;2023-03-22T08:58:27;98416.22;;;10.72;43.95
40372;BME280;28564;53.346;-6.554;2023-03-22T09:00:54;98403.20;;;10.58;44.07
40372;BME280;28564;53.346;-6.554;2023-03-22T09:03:21;98401.97;;;10.80;43.73
40372;BME280;28564;53.346;-6.554;2023-03-22T09:05:49;98398.80;;;11.01;43.69
40372;BME280;28564;53.346;-6.554;2023-03-22T09:08:16;98396.53;;;11.22;43.11
40372;BME280;28564;53.346;-6.554;2023-03-22T09:10:43;98393.11;;;11.13;43.00
40372;BME280;28564;53.346;-6.554;2023-03-22T09:13:11;98388.03;;;11.10;42.75
40372;BME280;28564;53.346;-6.554;2023-03-22T09:15:39;98380.37;;;11.46;42.66
40372;BME280;28564;53.346;-6.554;2023-03-22T09:18:06;98389.91;;;11.30;42.30
40372;BME280;28564;53.346;-6.554;2023-03-22T09:20:33;98381.18;;;11.60;42.42
40372;BME280;28564;53.346;-6.554;2023-03-22T09:23:00;98374.32;;;11.65;42.21
40372;BME280;28564;53.346;-6.554;2023-03-22T09:25:27;98372.36;;;11.63;42.09
40372;BME280;28564;53.346;-6.554;2023-03-22T09:27:55;98374.85;;;11.59;42.08
40372;BME280;28564;53.346;-6.554;2023-03-22T09:30:29;98381.53;;;11.47;42.08
40372;BME280;28564;53.346;-6.554;2023-03-22T09:32:56;98380.66;;;11.38;42.09
40372;BME280;28564;53.346;-6.554;2023-03-22T09:35:23;98388.81;;;11.30;42.27
40372;BME280;28564;53.346;-6.554;2023-03-22T09:37:52;98387.19;;;11.22;42.31
40372;BME280;28564;53.346;-6.554;2023-03-22T09:40:20;98386.79;;;11.20;42.68
40372;BME280;28564;53.346;-6.554;2023-03-22T09:42:50;98393.61;;;11.18;43.08
40372;BME280;28564;53.346;-6.554;2023-03-22T09:45:19;98390.85;;;11.20;43.25
40372;BME280;28564;53.346;-6.554;2023-03-22T09:47:50;98390.62;;;11.23;42.95
40372;BME280;28564;53.346;-6.554;2023-03-22T09:50:21;98392.81;;;11.24;42.77
40372;BME280;28564;53.346;-6.554;2023-03-22T09:52:49;98392.47;;;11.25;43.08
40372;BME280;28564;53.346;-6.554;2023-03-22T09:55:20;98394.16;;;11.37;43.28
40372;BME280;28564;53.346;-6.554;2023-03-22T09:57:55;98392.17;;;11.49;43.46
40372;BME280;28564;53.346;-6.554;2023-03-22T10:00:36;98394.27;;;11.65;43.01
40372;BME280;28564;53.346;-6.554;2023-03-22T10:03:13;98377.36;;;11.31;42.93
40372;BME280;28564;53.346;-6.554;2023-03-22T10:05:46;98385.07;;;11.83;42.83
40372;BME280;28564;53.346;-6.554;2023-03-22T10:08:27;98386.00;;;11.82;43.01
40372;BME280;28564;53.346;-6.554;2023-03-22T10:10:59;98386.50;;;12.11;42.29
40372;BME280;28564;53.346;-6.554;2023-03-22T10:13:33;98381.54;;;12.25;42.21
40372;BME280;28564;53.346;-6.554;2023-03-22T10:16:02;98388.50;;;12.31;42.23
40372;BME280;28564;53.346;-6.554;2023-03-22T10:18:36;98388.35;;;12.38;42.34
40372;BME280;28564;53.346;-6.554;2023-03-22T10:21:05;98376.71;;;12.44;42.99
40372;BME280;28564;53.346;-6.554;2023-03-22T10:23:38;98380.04;;;12.57;43.19
40372;BME280;28564;53.346;-6.554;2023-03-22T10:26:08;98376.42;;;12.65;42.83
40372;BME280;28564;53.346;-6.554;2023-03-22T10:28:42;98366.23;;;12.60;43.09
40372;BME280;28564;53.346;-6.554;2023-03-22T10:31:13;98376.52;;;12.58;43.51
40372;BME280;28564;53.346;-6.554;2023-03-22T10:33:52;98372.79;;;12.60;43.71
40372;BME280;28564;53.346;-6.554;2023-03-22T10:36:24;98377.04;;;12.74;43.63
40372;BME280;28564;53.346;-6.554;2023-03-22T10:38:54;98371.95;;;13.11;43.61
40372;BME280;28564;53.346;-6.554;2023-03-22T10:41:24;98377.74;;;13.31;43.05
40372;BME280;28564;53.346;-6.554;2023-03-22T10:43:53;98369.84;;;13.62;42.10
40372;BME280;28564;53.346;-6.554;2023-03-22T10:46:24;98370.53;;;13.81;41.42
40372;BME280;28564;53.346;-6.554;2023-03-22T10:48:57;98375.47;;;13.91;40.75
40372;BME280;28564;53.346;-6.554;2023-03-22T10:51:28;98360.46;;;14.17;40.22
40372;BME280;28564;53.346;-6.554;2023-03-22T10:53:57;98360.61;;;14.18;40.01
40372;BME280;28564;53.346;-6.554;2023-03-22T10:56:25;98351.15;;;14.03;39.73
40372;BME280;28564;53.346;-6.554;2023-03-22T10:58:54;98347.11;;;14.15;39.80
40372;BME280;28564;53.346;-6.554;2023-03-22T11:01:27;98349.12;;;14.16;39.53
40372;BME280;28564;53.346;-6.554;2023-03-22T11:03:58;98357.92;;;14.42;39.57
40372;BME280;28564;53.346;-6.554;2023-03-22T11:06:29;98342.95;;;14.67;39.30
40372;BME280;28564;53.346;-6.554;2023-03-22T11:08:58;98349.05;;;14.85;39.43
40372;BME280;28564;53.346;-6.554;2023-03-22T11:11:28;98348.76;;;14.93;39.27
40372;BME280;28564;53.346;-6.554;2023-03-22T11:14:01;98341.55;;;14.75;39.37
40372;BME280;28564;53.346;-6.554;2023-03-22T11:16:40;98341.87;;;15.19;39.24
40372;BME280;28564;53.346;-6.554;2023-03-22T11:19:14;98333.98;;;14.77;39.58
40372;BME280;28564;53.346;-6.554;2023-03-22T11:21:44;98332.64;;;15.26;39.89
40372;BME280;28564;53.346;-6.554;2023-03-22T11:24:13;98331.51;;;14.91;39.36
40372;BME280;28564;53.346;-6.554;2023-03-22T11:26:40;98322.73;;;14.87;39.35
40372;BME280;28564;53.346;-6.554;2023-03-22T11:29:14;98313.11;;;14.68;40.49
40372;BME280;28564;53.346;-6.554;2023-03-22T11:31:59;98312.38;;;14.79;39.89
40372;BME280;28564;53.346;-6.554;2023-03-22T11:34:28;98301.34;;;14.67;39.08
40372;BME280;28564;53.346;-6.554;2023-03-22T11:36:59;98302.93;;;14.52;39.36
40372;BME280;28564;53.346;-6.554;2023-03-22T11:39:28;98290.29;;;14.58;38.75
40372;BME280;28564;53.346;-6.554;2023-03-22T11:41:56;98292.03;;;14.63;38.83
40372;BME280;28564;53.346;-6.554;2023-03-22T11:44:26;98289.79;;;14.64;38.11
40372;BME280;28564;53.346;-6.554;2023-03-22T11:46:56;98284.24;;;14.84;38.58
40372;BME280;28564;53.346;-6.554;2023-03-22T11:49:30;98290.48;;;14.74;39.11
40372;BME280;28564;53.346;-6.554;2023-03-22T11:52:06;98283.41;;;15.32;38.72
40372;BME280;28564;53.346;-6.554;2023-03-22T11:54:35;98296.43;;;15.48;37.24
40372;BME280;28564;53.346;-6.554;2023-03-22T11:57:05;98282.13;;;15.74;37.58
40372;BME280;28564;53.346;-6.554;2023-03-22T11:59:37;98286.16;;;15.93;37.26
40372;BME280;28564;53.346;-6.554;2023-03-22T12:02:15;98286.49;;;16.26;36.65
40372;BME280;28564;53.346;-6.554;2023-03-22T12:04:46;98295.97;;;16.25;36.63
40372;BME280;28564;53.346;-6.554;2023-03-22T12:07:17;98294.46;;;16.73;36.78
40372;BME280;28564;53.346;-6.554;2023-03-22T12:09:53;98294.75;;;16.42;36.25
40372;BME280;28564;53.346;-6.554;2023-03-22T12:12:26;98288.50;;;16.47;36.30
40372;BME280;28564;53.346;-6.554;2023-03-22T12:15:03;98289.21;;;16.35;36.58
40372;BME280;28564;53.346;-6.554;2023-03-22T12:17:35;98285.11;;;16.38;36.00
40372;BME280;28564;53.346;-6.554;2023-03-22T12:20:19;98295.64;;;16.38;36.06
40372;BME280;28564;53.346;-6.554;2023-03-22T12:22:51;98288.55;;;16.72;35.62
40372;BME280;28564;53.346;-6.554;2023-03-22T12:25:21;98281.47;;;17.02;35.29
40372;BME280;28564;53.346;-6.554;2023-03-22T12:27:52;98283.65;;;17.18;34.51
40372;BME280;28564;53.346;-6.554;2023-03-22T12:30:21;98276.88;;;17.11;33.30
40372;BME280;28564;53.346;-6.554;2023-03-22T12:32:52;98283.24;;;17.35;33.26
40372;BME280;28564;53.346;-6.554;2023-03-22T12:35:25;98278.52;;;17.40;33.02
40372;BME280;28564;53.346;-6.554;2023-03-22T12:37:56;98273.40;;;17.88;33.11
40372;BME280;28564;53.346;-6.554;2023-03-22T12:40:27;98284.55;;;17.86;33.14
40372;BME280;28564;53.346;-6.554;2023-03-22T12:43:00;98274.84;;;17.79;32.10
40372;BME280;28564;53.346;-6.554;2023-03-22T12:45:31;98276.36;;;18.67;31.54
40372;BME280;28564;53.346;-6.554;2023-03-22T12:48:05;98274.35;;;19.04;30.63
40372;BME280;28564;53.346;-6.554;2023-03-22T12:50:39;98261.79;;;19.97;30.18
40372;BME280;28564;53.346;-6.554;2023-03-22T12:53:11;98249.74;;;20.52;29.53
40372;BME280;28564;53.346;-6.554;2023-03-22T12:55:40;98270.77;;;20.74;28.45
40372;BME280;28564;53.346;-6.554;2023-03-22T12:58:08;98250.30;;;21.20;27.21
40372;BME280;28564;53.346;-6.554;2023-03-22T13:00:41;98246.68;;;21.84;26.45
40372;BME280;28564;53.346;-6.554;2023-03-22T13:03:19;98242.09;;;22.25;26.13
40372;BME280;28564;53.346;-6.554;2023-03-22T13:05:57;98226.80;;;22.73;25.49
40372;BME280;28564;53.346;-6.554;2023-03-22T13:08:25;98229.04;;;23.28;24.93